createdAt,value
2019-01-28T00:02:10.872Z,3.07
2019-01-28T00:04:38.431Z,2.57
2019-01-28T00:07:05.702Z,2.67
2019-01-28T00:09:33.214Z,2.37
2019-01-28T00:12:00.492Z,3.07
2019-01-28T00:14:27.739Z,3.57
2019-01-28T00:16:55.276Z,1.83
2019-01-28T00:19:22.574Z,2.10
2019-01-28T00:21:49.919Z,3.13
2019-01-28T00:24:17.277Z,2.03
2019-01-28T00:26:44.631Z,2.53
2019-01-28T00:29:11.889Z,2.40
2019-01-28T00:31:39.388Z,2.00
2019-01-28T00:34:06.633Z,2.50
2019-01-28T00:36:35.674Z,2.00
2019-01-28T00:39:05.547Z,2.00
2019-01-28T00:41:32.885Z,1.90
2019-01-28T00:44:00.149Z,2.63
2019-01-28T00:46:27.426Z,3.47
2019-01-28T00:48:55.018Z,1.70
2019-01-28T00:51:22.294Z,2.40
2019-01-28T00:53:49.550Z,3.23
2019-01-28T00:56:17.068Z,1.80
2019-01-28T00:58:44.337Z,3.57
2019-01-28T01:01:11.687Z,1.83
2019-01-28T01:03:39.060Z,2.20
2019-01-28T01:06:06.326Z,3.13
2019-01-28T01:08:33.595Z,2.00
2019-01-28T01:11:00.852Z,3.37
2019-01-28T01:13:28.107Z,3.33
2019-01-28T01:15:55.386Z,2.00
2019-01-28T01:18:22.627Z,2.77
2019-01-28T01:20:49.867Z,2.57
2019-01-28T01:23:17.405Z,2.60
2019-01-28T01:25:44.933Z,3.13
2019-01-28T01:28:12.539Z,5.40
2019-01-28T01:30:39.896Z,2.90
2019-01-28T01:33:07.233Z,3.03
2019-01-28T01:35:34.741Z,2.17
2019-01-28T01:38:02.000Z,2.63
2019-01-28T01:40:29.476Z,1.90
2019-01-28T01:42:56.932Z,2.67
2019-01-28T01:45:24.184Z,4.60
2019-01-28T01:47:51.450Z,2.70
2019-01-28T01:50:18.996Z,2.17
2019-01-28T01:52:46.494Z,2.60
2019-01-28T01:55:13.779Z,3.63
2019-01-28T01:57:41.461Z,2.03
2019-01-28T02:00:10.236Z,1.67
2019-01-28T02:02:37.479Z,2.30
2019-01-28T02:05:04.980Z,2.83
2019-01-28T02:07:32.814Z,2.10
2019-01-28T02:10:00.739Z,2.47
2019-01-28T02:12:27.974Z,3.57
2019-01-28T02:14:55.263Z,2.80
2019-01-28T02:17:22.486Z,2.17
2019-01-28T02:19:50.270Z,2.50
2019-01-28T02:22:17.513Z,2.00
2019-01-28T02:24:44.765Z,4.43
2019-01-28T02:27:12.112Z,2.60
2019-01-28T02:29:39.631Z,3.50
2019-01-28T02:32:06.888Z,2.43
2019-01-28T02:34:34.161Z,2.53
2019-01-28T02:37:01.771Z,3.87
2019-01-28T02:39:29.176Z,3.37
2019-01-28T02:41:56.601Z,2.20
2019-01-28T02:44:23.931Z,3.00
2019-01-28T02:46:51.178Z,1.30
2019-01-28T02:49:18.690Z,2.20
2019-01-28T02:51:46.224Z,3.00
2019-01-28T02:54:13.589Z,2.37
2019-01-28T02:56:40.821Z,2.80
2019-01-28T02:59:08.071Z,2.90
2019-01-28T03:01:35.597Z,2.37
2019-01-28T03:04:02.937Z,3.10
2019-01-28T03:06:30.185Z,2.93
2019-01-28T03:08:57.569Z,2.10
2019-01-28T03:11:24.862Z,1.60
2019-01-28T03:13:52.404Z,2.63
2019-01-28T03:16:19.646Z,2.17
2019-01-28T03:18:46.924Z,2.20
2019-01-28T03:21:14.163Z,1.57
2019-01-28T03:23:41.434Z,2.23
2019-01-28T03:26:08.697Z,2.10
2019-01-28T03:28:35.954Z,2.47
2019-01-28T03:31:03.738Z,1.40
2019-01-28T03:33:30.992Z,2.10
2019-01-28T03:35:58.320Z,3.30
2019-01-28T03:38:25.850Z,1.33
2019-01-28T03:40:53.087Z,1.90
2019-01-28T03:43:20.621Z,1.23
2019-01-28T03:45:47.874Z,1.30
2019-01-28T03:48:15.396Z,1.70
2019-01-28T03:50:42.749Z,2.27
2019-01-28T03:53:11.895Z,1.93
2019-01-28T03:55:39.151Z,1.33
2019-01-28T03:58:06.430Z,1.10
2019-01-28T04:00:33.689Z,1.10
2019-01-28T04:03:00.965Z,1.70
2019-01-28T04:05:28.507Z,1.53
2019-01-28T04:07:56.141Z,2.23
2019-01-28T04:10:23.771Z,1.10
2019-01-28T04:12:51.356Z,1.20
2019-01-28T04:15:19.176Z,1.40
2019-01-28T04:17:46.423Z,1.93
2019-01-28T04:20:13.967Z,1.97
2019-01-28T04:22:41.517Z,2.03
2019-01-28T04:25:09.193Z,2.10
2019-01-28T04:27:37.057Z,1.67
2019-01-28T04:30:05.320Z,1.73
2019-01-28T04:32:32.604Z,1.57
2019-01-28T04:34:59.862Z,0.87
2019-01-28T04:37:27.190Z,1.67
2019-01-28T04:39:54.715Z,1.90
2019-01-28T04:42:21.953Z,1.60
2019-01-28T04:44:49.278Z,1.20
2019-01-28T04:47:16.553Z,2.20
2019-01-28T04:49:44.145Z,1.10
2019-01-28T04:52:11.413Z,0.93
2019-01-28T04:54:38.762Z,0.90
2019-01-28T04:57:06.292Z,1.93
2019-01-28T04:59:33.928Z,1.23
2019-01-28T05:02:01.453Z,1.40
2019-01-28T05:04:28.812Z,1.50
2019-01-28T05:06:56.069Z,1.23
2019-01-28T05:09:23.357Z,2.00
2019-01-28T05:11:50.594Z,1.63
2019-01-28T05:14:17.840Z,1.10
2019-01-28T05:16:45.190Z,0.87
2019-01-28T05:19:12.454Z,1.43
2019-01-28T05:21:39.735Z,1.73
2019-01-28T05:24:07.037Z,2.13
2019-01-28T05:26:34.615Z,1.63
2019-01-28T05:29:01.906Z,1.40
2019-01-28T05:31:29.426Z,1.80
2019-01-28T05:33:57.155Z,1.47
2019-01-28T05:36:24.699Z,1.80
2019-01-28T05:38:51.938Z,2.33
2019-01-28T05:41:19.184Z,2.60
2019-01-28T05:43:46.476Z,1.90
2019-01-28T05:46:13.995Z,2.60
2019-01-28T05:48:41.241Z,1.50
2019-01-28T05:51:08.525Z,2.67
2019-01-28T05:53:35.797Z,3.17
2019-01-28T05:56:03.148Z,2.13
2019-01-28T05:58:30.946Z,1.83
2019-01-28T06:00:58.305Z,2.63
2019-01-28T06:03:25.576Z,2.50
2019-01-28T06:05:53.426Z,2.07
2019-01-28T06:08:20.704Z,2.13
2019-01-28T06:10:48.084Z,1.80
2019-01-28T06:13:15.348Z,1.30
2019-01-28T06:15:42.735Z,1.47
2019-01-28T06:18:09.992Z,1.30
2019-01-28T06:20:37.509Z,1.57
2019-01-28T06:23:04.869Z,1.80
2019-01-28T06:25:32.125Z,2.33
2019-01-28T06:27:59.399Z,1.97
2019-01-28T06:30:27.627Z,1.73
2019-01-28T06:32:54.940Z,2.17
2019-01-28T06:35:22.225Z,1.53
2019-01-28T06:37:49.491Z,2.27
2019-01-28T06:40:18.335Z,2.00
2019-01-28T06:42:45.950Z,1.87
2019-01-28T06:45:13.758Z,2.20
2019-01-28T06:47:46.654Z,1.40
2019-01-28T06:50:11.076Z,1.73
2019-01-28T06:52:38.519Z,1.17
2019-01-28T06:55:06.101Z,1.50
2019-01-28T06:57:33.414Z,1.07
2019-01-28T07:00:00.759Z,1.07
2019-01-28T07:02:28.007Z,1.53
2019-01-28T07:04:55.286Z,1.23
2019-01-28T07:07:22.821Z,2.10
2019-01-28T07:09:50.107Z,2.00
2019-01-28T07:12:17.474Z,1.70
2019-01-28T07:14:44.843Z,0.93
2019-01-28T07:17:12.108Z,1.77
2019-01-28T07:19:39.355Z,1.90
2019-01-28T07:22:06.972Z,2.57
2019-01-28T07:24:34.214Z,1.80
2019-01-28T07:27:02.447Z,1.93
2019-01-28T07:29:30.291Z,1.40
2019-01-28T07:31:57.712Z,1.93
2019-01-28T07:34:25.229Z,2.13
2019-01-28T07:36:52.533Z,1.60
2019-01-28T07:39:19.784Z,1.50
2019-01-28T07:41:47.063Z,1.63
2019-01-28T07:44:14.621Z,1.53
2019-01-28T07:46:42.165Z,1.07
2019-01-28T07:49:09.447Z,1.17
2019-01-28T07:51:36.704Z,1.87
2019-01-28T07:54:04.053Z,2.73
2019-01-28T07:56:31.320Z,2.33
2019-01-28T07:58:58.587Z,2.13
2019-01-28T08:01:25.941Z,2.53
2019-01-28T08:03:53.199Z,1.47
2019-01-28T08:06:20.491Z,2.03
2019-01-28T08:08:47.747Z,1.87
2019-01-28T08:11:15.257Z,1.90
2019-01-28T08:13:42.531Z,3.77
2019-01-28T08:16:10.046Z,1.90
2019-01-28T08:18:37.337Z,1.40
2019-01-28T08:21:04.602Z,1.20
2019-01-28T08:23:31.937Z,1.67
2019-01-28T08:25:59.225Z,1.90
2019-01-28T08:28:26.567Z,1.97
2019-01-28T08:30:53.823Z,1.60
2019-01-28T08:33:21.092Z,1.93
2019-01-28T08:35:48.371Z,1.40
2019-01-28T08:38:16.002Z,2.03
2019-01-28T08:40:43.514Z,2.23
2019-01-28T08:43:10.751Z,3.30
2019-01-28T08:45:38.017Z,1.97
2019-01-28T08:48:05.805Z,2.77
2019-01-28T08:50:33.346Z,2.53
2019-01-28T08:53:00.625Z,2.60
2019-01-28T08:55:27.989Z,1.97
2019-01-28T08:57:55.264Z,2.27
2019-01-28T09:00:23.655Z,2.23
2019-01-28T09:02:50.930Z,2.80
2019-01-28T09:05:18.249Z,3.00
2019-01-28T09:07:45.492Z,3.60
2019-01-28T09:10:13.498Z,2.50
2019-01-28T09:12:40.849Z,2.57
2019-01-28T09:15:09.023Z,1.77
2019-01-28T09:17:36.293Z,3.17
2019-01-28T09:20:04.647Z,2.53
2019-01-28T09:22:31.913Z,2.60
2019-01-28T09:24:59.158Z,2.63
2019-01-28T09:27:26.436Z,2.43
2019-01-28T09:29:53.809Z,2.70
2019-01-28T09:32:21.335Z,2.87
2019-01-28T09:34:48.583Z,3.07
2019-01-28T09:37:15.936Z,3.10
2019-01-28T09:39:43.301Z,2.70
2019-01-28T09:42:30.164Z,3.50
2019-01-28T09:48:11.248Z,3.07
2019-01-28T09:50:38.764Z,2.67
2019-01-28T09:53:05.989Z,2.20
2019-01-28T09:55:33.248Z,2.30
2019-01-28T09:58:00.600Z,2.80
2019-01-28T10:00:29.288Z,2.67
2019-01-28T10:02:57.148Z,2.70
2019-01-28T10:05:24.538Z,3.37
2019-01-28T10:08:11.285Z,2.70
2019-01-28T10:10:38.669Z,3.00
2019-01-28T10:13:06.332Z,2.30
2019-01-28T10:15:33.696Z,2.50
2019-01-28T10:18:01.319Z,2.47
2019-01-28T10:20:32.871Z,2.57
2019-01-28T10:23:00.482Z,2.20
2019-01-28T10:25:28.194Z,3.10
2019-01-28T10:27:55.538Z,2.87
2019-01-28T10:30:24.190Z,2.77
2019-01-28T10:32:51.474Z,2.70
2019-01-28T10:35:18.820Z,3.07
2019-01-28T10:37:46.060Z,2.13
2019-01-28T10:40:15.281Z,2.30
2019-01-28T10:42:42.693Z,1.90
2019-01-28T10:45:10.157Z,2.50
2019-01-28T10:47:37.749Z,1.97
2019-01-28T10:50:05.297Z,2.10
2019-01-28T10:52:32.567Z,2.60
2019-01-28T10:54:59.838Z,2.50
2019-01-28T10:57:27.364Z,2.40
2019-01-28T10:59:54.747Z,1.80
2019-01-28T11:02:21.995Z,2.30
2019-01-28T11:04:49.599Z,1.97
2019-01-28T11:07:17.116Z,1.80
2019-01-28T11:09:44.440Z,2.57
2019-01-28T11:12:11.977Z,1.80
2019-01-28T11:14:39.505Z,1.83
2019-01-28T11:17:07.485Z,2.67
2019-01-28T11:19:34.796Z,2.33
2019-01-28T11:22:02.225Z,2.23
2019-01-28T11:24:29.572Z,1.70
2019-01-28T11:26:57.840Z,2.13
2019-01-28T11:29:25.209Z,1.70
2019-01-28T11:31:52.503Z,1.30
2019-01-28T11:34:19.839Z,1.30
2019-01-28T11:36:47.517Z,1.40
2019-01-28T11:39:14.853Z,1.77
2019-01-28T11:41:42.473Z,1.57
2019-01-28T11:44:09.944Z,2.23
2019-01-28T11:46:37.501Z,1.77
2019-01-28T11:49:06.021Z,2.33
2019-01-28T11:51:33.762Z,2.37
2019-01-28T11:54:01.071Z,1.60
2019-01-28T11:56:28.334Z,1.30
2019-01-28T11:58:55.619Z,1.57
2019-01-28T12:01:26.673Z,2.27
2019-01-28T12:03:53.938Z,2.00
2019-01-28T12:06:21.258Z,2.53
2019-01-28T12:08:48.856Z,2.20
2019-01-28T12:11:16.136Z,1.43
2019-01-28T12:13:43.420Z,1.40
2019-01-28T12:16:30.148Z,1.00
2019-01-28T12:27:57.570Z,1.17
2019-01-28T12:30:25.410Z,0.90
2019-01-28T12:32:52.764Z,2.27
2019-01-28T12:35:20.022Z,1.10
2019-01-28T12:37:47.261Z,0.87
2019-01-28T12:40:14.947Z,1.90
2019-01-28T12:42:42.457Z,2.40
2019-01-28T12:45:11.413Z,1.27
2019-01-28T12:47:38.683Z,2.03
2019-01-28T12:50:06.286Z,1.50
2019-01-28T12:52:33.647Z,1.10
2019-01-28T12:55:00.926Z,0.80
2019-01-28T12:57:28.203Z,1.07
2019-01-28T12:59:55.439Z,1.70
2019-01-28T13:02:22.692Z,3.00
2019-01-28T13:04:50.355Z,1.17
2019-01-28T13:07:17.926Z,1.90
2019-01-28T13:09:45.268Z,1.50
2019-01-28T13:12:12.622Z,2.57
2019-01-28T13:14:39.889Z,2.50
2019-01-28T13:17:07.234Z,2.40
2019-01-28T13:19:34.525Z,2.73
2019-01-28T13:22:01.870Z,2.17
2019-01-28T13:24:29.133Z,1.93
2019-01-28T13:26:56.340Z,1.10
2019-01-28T13:29:23.618Z,1.10
2019-01-28T13:31:50.884Z,0.83
2019-01-28T13:34:20.608Z,0.73
2019-01-28T13:36:48.417Z,0.43
2019-01-28T13:39:15.785Z,0.87
2019-01-28T13:41:43.346Z,1.20
2019-01-28T13:44:10.693Z,1.13
2019-01-28T13:46:37.996Z,1.20
2019-01-28T13:49:05.309Z,2.77
2019-01-28T13:51:32.829Z,1.57
2019-01-28T13:54:00.113Z,2.03
2019-01-28T13:56:28.168Z,2.87
2019-01-28T13:58:55.773Z,1.83
2019-01-28T14:01:23.004Z,1.37
2019-01-28T14:03:50.264Z,1.70
2019-01-28T14:06:17.534Z,1.27
2019-01-28T14:08:45.038Z,1.27
2019-01-28T14:11:12.307Z,2.07
2019-01-28T14:13:39.575Z,1.53
2019-01-28T14:16:06.879Z,1.50
2019-01-28T14:18:34.661Z,2.00
2019-01-28T14:21:03.465Z,1.53
2019-01-28T14:23:30.807Z,1.70
2019-01-28T14:25:58.103Z,2.00
2019-01-28T14:28:25.392Z,1.53
2019-01-28T14:30:52.656Z,1.30
2019-01-28T14:33:20.050Z,1.47
2019-01-28T14:35:47.396Z,1.03
2019-01-28T14:38:32.887Z,1.00
2019-01-28T14:41:00.475Z,1.20
2019-01-28T14:43:27.760Z,1.07
2019-01-28T14:46:14.796Z,1.13
2019-01-28T14:49:01.625Z,1.90
2019-01-28T14:51:28.910Z,1.07
2019-01-28T14:53:56.289Z,1.00
2019-01-28T14:56:24.147Z,0.90
2019-01-28T14:58:51.530Z,0.83
2019-01-28T15:01:18.820Z,1.40
2019-01-28T15:03:46.102Z,1.77
2019-01-28T15:06:13.452Z,1.77
2019-01-28T15:08:40.722Z,1.80
2019-01-28T15:11:08.126Z,2.23
2019-01-28T15:13:35.520Z,1.30
2019-01-28T15:16:08.823Z,1.10
2019-01-28T15:18:32.854Z,0.90
2019-01-28T15:21:00.114Z,1.10
2019-01-28T15:23:27.403Z,1.67
2019-01-28T15:25:54.711Z,1.70
2019-01-28T15:28:22.087Z,1.40
2019-01-28T15:30:52.093Z,2.23
2019-01-28T15:33:19.491Z,1.20
2019-01-28T15:35:46.838Z,1.33
2019-01-28T15:38:14.213Z,1.50
2019-01-28T15:40:41.930Z,1.50
2019-01-28T15:43:09.252Z,1.53
2019-01-28T15:45:37.691Z,2.00
2019-01-28T15:48:05.288Z,1.33
2019-01-28T15:50:32.652Z,1.30
2019-01-28T15:52:59.925Z,1.37
2019-01-28T15:55:30.494Z,1.60
2019-01-28T15:57:58.286Z,1.97
2019-01-28T16:00:26.699Z,1.67
2019-01-28T16:02:53.984Z,1.50
2019-01-28T16:05:22.060Z,1.30
2019-01-28T16:07:49.540Z,1.30
2019-01-28T16:10:17.185Z,0.83
2019-01-28T16:12:44.492Z,1.60
2019-01-28T16:15:22.494Z,2.20
2019-01-28T16:17:53.911Z,1.73
2019-01-28T16:20:21.590Z,1.73
2019-01-28T16:22:48.978Z,1.50
2019-01-28T16:25:19.815Z,1.57
2019-01-28T16:27:47.176Z,1.73
2019-01-28T16:30:15.645Z,1.47
2019-01-28T16:32:43.009Z,1.47
2019-01-28T16:35:16.890Z,1.23
2019-01-28T16:37:45.285Z,1.43
2019-01-28T16:40:13.314Z,1.40
2019-01-28T16:42:40.825Z,1.10
2019-01-28T16:45:09.131Z,1.90
2019-01-28T16:47:36.553Z,1.73
2019-01-28T16:50:05.050Z,3.03
2019-01-28T16:52:32.589Z,1.33
2019-01-28T16:55:00.247Z,1.97
2019-01-28T16:57:27.787Z,1.67
2019-01-28T16:59:55.039Z,1.83
2019-01-28T17:02:22.324Z,1.53
2019-01-28T17:04:49.592Z,1.27
2019-01-28T17:07:16.845Z,1.20
2019-01-28T17:09:44.151Z,1.07
2019-01-28T17:12:11.413Z,1.50
2019-01-28T17:14:39.048Z,1.70
2019-01-28T17:17:06.351Z,1.80
2019-01-28T17:19:33.635Z,1.40
2019-01-28T17:22:01.011Z,1.13
2019-01-28T17:24:28.271Z,1.50
2019-01-28T17:26:55.560Z,1.20
2019-01-28T17:29:22.837Z,1.97
2019-01-28T17:31:50.073Z,0.83
2019-01-28T17:34:17.368Z,1.00
2019-01-28T17:36:44.748Z,1.10
2019-01-28T17:39:12.336Z,1.87
2019-01-28T17:41:39.700Z,1.10
2019-01-28T17:44:07.035Z,1.43
2019-01-28T17:46:34.290Z,1.40
2019-01-28T17:49:01.634Z,1.70
2019-01-28T17:51:28.915Z,1.70
2019-01-28T17:53:56.167Z,1.40
2019-01-28T17:56:23.423Z,1.03
2019-01-28T17:58:50.997Z,1.77
2019-01-28T18:01:18.392Z,1.57
2019-01-28T18:03:48.505Z,1.97
2019-01-28T18:06:15.982Z,0.97
2019-01-28T18:08:43.331Z,1.77
2019-01-28T18:11:10.823Z,1.30
2019-01-28T18:13:38.473Z,1.00
2019-01-28T18:16:06.041Z,1.60
2019-01-28T18:18:33.349Z,1.37
2019-01-28T18:21:00.958Z,1.40
2019-01-28T18:23:48.058Z,1.43
2019-01-28T18:26:15.968Z,1.20
2019-01-28T18:28:43.682Z,1.77
2019-01-28T18:31:10.958Z,0.90
2019-01-28T18:33:40.243Z,1.47
2019-01-28T18:36:07.580Z,1.00
2019-01-28T18:38:34.911Z,0.97
2019-01-28T18:41:02.312Z,1.00
2019-01-28T18:43:29.722Z,0.90
2019-01-28T18:45:57.105Z,1.50
2019-01-28T18:48:24.390Z,1.33
2019-01-28T18:50:59.283Z,1.70
2019-01-28T18:53:21.818Z,1.30
2019-01-28T18:55:49.196Z,1.87
2019-01-28T18:58:16.862Z,2.10
2019-01-28T19:00:44.450Z,1.90
2019-01-28T19:03:11.921Z,1.77
2019-01-28T19:06:17.969Z,2.40
2019-01-28T19:08:51.024Z,1.80
2019-01-28T19:11:39.794Z,1.17
2019-01-28T19:14:29.445Z,1.40
2019-01-28T19:17:10.510Z,1.37
2019-01-28T19:19:56.128Z,1.20
2019-01-28T19:22:25.079Z,1.13
2019-01-28T19:24:52.439Z,1.40
2019-01-28T19:27:19.997Z,1.10
2019-01-28T19:29:47.762Z,1.20
2019-01-28T19:32:15.146Z,1.50
2019-01-28T19:34:42.855Z,0.97
2019-01-28T19:37:10.253Z,0.70
2019-01-28T19:39:37.607Z,1.07
2019-01-28T19:42:05.007Z,1.60
2019-01-28T19:44:32.339Z,0.77
2019-01-28T19:46:59.632Z,0.90
2019-01-28T19:49:26.969Z,0.80
2019-01-28T19:51:54.522Z,1.10
2019-01-28T19:54:21.911Z,1.17
2019-01-28T19:56:49.184Z,1.40
2019-01-28T19:59:16.480Z,1.20
2019-01-28T20:01:43.828Z,1.13
2019-01-28T20:04:11.120Z,1.20
2019-01-28T20:06:38.476Z,1.30
2019-01-28T20:09:06.961Z,1.80
2019-01-28T20:11:34.336Z,1.20
2019-01-28T20:14:01.622Z,1.23
2019-01-28T20:16:29.084Z,1.00
2019-01-28T20:18:56.439Z,1.30
2019-01-28T20:21:24.208Z,1.03
2019-01-28T20:23:51.595Z,0.90
2019-01-28T20:26:18.994Z,0.73
2019-01-28T20:28:46.363Z,0.73
2019-01-28T20:31:13.671Z,1.00
2019-01-28T20:33:40.920Z,0.80
2019-01-28T20:36:08.177Z,0.50
2019-01-28T20:38:35.590Z,0.80
2019-01-28T20:41:02.948Z,0.60
2019-01-28T20:43:30.316Z,0.50
2019-01-28T20:45:57.928Z,0.50
2019-01-28T20:48:25.642Z,0.50
2019-01-28T20:50:53.258Z,0.60
2019-01-28T20:53:20.658Z,0.87
2019-01-28T20:55:48.067Z,0.50
2019-01-28T20:58:15.418Z,1.57
2019-01-28T21:00:42.741Z,1.03
2019-01-28T21:03:10.087Z,1.37
2019-01-28T21:05:37.459Z,2.23
2019-01-28T21:08:04.801Z,2.13
2019-01-28T21:10:32.197Z,2.00
2019-01-28T21:12:59.497Z,2.40
2019-01-28T21:15:26.832Z,2.20
2019-01-28T21:17:54.092Z,3.00
2019-01-28T21:20:21.342Z,2.67
2019-01-28T21:22:49.249Z,2.90
2019-01-28T21:25:17.479Z,2.17
2019-01-28T21:27:44.749Z,1.90
2019-01-28T21:30:16.589Z,1.90
2019-01-28T21:32:43.966Z,1.90
2019-01-28T21:35:11.306Z,1.73
2019-01-28T21:37:50.089Z,1.70
2019-01-28T21:40:17.373Z,1.73
2019-01-28T21:42:44.719Z,1.87
2019-01-28T21:45:12.095Z,2.83
2019-01-28T21:47:41.464Z,1.67
2019-01-28T21:50:09.160Z,3.53
2019-01-28T21:52:36.817Z,1.80
2019-01-28T21:55:04.843Z,2.47
2019-01-28T21:57:32.129Z,1.43
2019-01-28T21:59:59.428Z,1.10
2019-01-28T22:02:26.813Z,1.00
2019-01-28T22:04:54.501Z,1.10
2019-01-28T22:07:24.557Z,0.60
2019-01-28T22:09:51.827Z,0.80
2019-01-28T22:12:19.140Z,0.60
2019-01-28T22:14:46.488Z,1.10
2019-01-28T22:17:13.854Z,0.80
2019-01-28T22:19:41.181Z,1.03
2019-01-28T22:22:08.838Z,0.87
2019-01-28T22:24:36.217Z,0.57
2019-01-28T22:27:03.890Z,0.70
2019-01-28T22:29:31.143Z,1.00
2019-01-28T22:31:58.548Z,0.83
2019-01-28T22:34:25.935Z,0.83
2019-01-28T22:36:53.587Z,0.70
2019-01-28T22:39:20.864Z,1.10
2019-01-28T22:41:48.109Z,0.83
2019-01-28T22:44:15.361Z,1.00
2019-01-28T22:46:42.902Z,1.00
2019-01-28T22:49:10.437Z,0.90
2019-01-28T22:51:38.031Z,1.30
2019-01-28T22:54:05.439Z,0.80
2019-01-28T22:56:32.694Z,1.60
2019-01-28T22:59:00.122Z,1.93
2019-01-28T23:01:32.080Z,1.80
2019-01-28T23:03:59.370Z,1.90
2019-01-28T23:06:26.894Z,2.10
2019-01-28T23:08:54.183Z,2.50
2019-01-28T23:11:21.559Z,2.40
2019-01-28T23:13:49.085Z,2.00
2019-01-28T23:16:16.564Z,2.40
2019-01-28T23:18:43.798Z,2.33
2019-01-28T23:21:11.330Z,2.50
2019-01-28T23:23:38.665Z,3.80
2019-01-28T23:26:06.013Z,3.37
2019-01-28T23:28:33.301Z,3.27
2019-01-28T23:31:00.646Z,3.00
2019-01-28T23:33:27.959Z,3.43
2019-01-28T23:35:55.330Z,3.50
2019-01-28T23:38:22.680Z,3.80
2019-01-28T23:40:49.956Z,3.60
2019-01-28T23:43:17.240Z,3.37
2019-01-28T23:45:44.492Z,4.27
2019-01-28T23:48:11.752Z,4.50
2019-01-28T23:50:39.372Z,3.87
2019-01-28T23:53:06.902Z,4.17
2019-01-28T23:55:34.258Z,4.10
2019-01-28T23:58:01.531Z,4.57
